Time;durP1;ratioP1;P1;durP2;ratioP2;P2;SDS_P1;SDS_P2;PMS_P1;PMS_P2;Temp;Humidity;BMP_temperature;BMP_pressure;BME280_temperature;BME280_humidity;BME280_pressure;Samples;Min_cycle;Max_cycle;Signal;HPM_P1;HPM_P2
2022/01/12 00:01:10;;;;;;;114.95;50.38;;;;;;;;;;782406;177;914314;-69
2022/01/12 00:03:34;;;;;;;100.07;48.60;;;;;;;;;;783243;176;1017655;-70
2022/01/12 00:06:00;;;;;;;113.10;50.57;;;;;;;;;;782946;177;918609;-70
2022/01/12 00:08:26;;;;;;;129.48;55.00;;;;;;;;;;779531;176;919281;-70
2022/01/12 00:10:52;;;;;;;117.10;54.27;;;;;;;;;;784686;176;918854;-70
2022/01/12 00:13:17;;;;;;;134.90;56.37;;;;;;;;;;779727;176;922678;-70
2022/01/12 00:15:43;;;;;;;179.30;70.10;;;;;;;;;;784103;176;1019806;-69
2022/01/12 00:18:09;;;;;;;114.90;52.23;;;;;;;;;;787679;176;919166;-70
2022/01/12 00:20:35;;;;;;;107.97;51.63;;;;;;;;;;782247;176;918104;-70
2022/01/12 00:23:01;;;;;;;124.87;54.50;;;;;;;;;;782425;176;917855;-70
2022/01/12 00:25:31;;;;;;;158.17;63.70;;;;;;;;;;771606;180;918806;-69
2022/01/12 00:35:27;;;;;;;147.30;63.90;;;;;;;;;;781204;176;917739;-70
2022/01/12 00:37:53;;;;;;;139.80;56.70;;;;;;;;;;783636;177;918618;-71
2022/01/12 00:40:19;;;;;;;140.20;58.90;;;;;;;;;;779393;177;919464;-70
2022/01/12 00:42:45;;;;;;;134.17;55.47;;;;;;;;;;781416;177;917972;-70
2022/01/12 00:45:11;;;;;;;125.37;55.20;;;;;;;;;;782819;179;1225550;-70
2022/01/12 00:47:37;;;;;;;130.93;58.43;;;;;;;;;;780534;177;918798;-69
2022/01/12 00:50:03;;;;;;;132.73;58.17;;;;;;;;;;778037;177;919077;-70
2022/01/12 00:52:29;;;;;;;133.33;58.50;;;;;;;;;;784447;177;918253;-70
2022/01/12 00:54:55;;;;;;;125.60;55.33;;;;;;;;;;779815;177;918411;-70
2022/01/12 00:57:20;;;;;;;120.73;55.03;;;;;;;;;;774085;179;918838;-71
2022/01/12 00:59:46;;;;;;;159.37;61.60;;;;;;;;;;786429;176;918978;-70
2022/01/12 01:02:12;;;;;;;132.50;55.03;;;;;;;;;;781520;177;920223;-71
2022/01/12 01:04:38;;;;;;;140.68;58.22;;;;;;;;;;777615;177;919554;-70
2022/01/12 01:07:04;;;;;;;122.57;59.33;;;;;;;;;;779127;177;918931;-69
2022/01/12 01:09:31;;;;;;;150.93;62.47;;;;;;;;;;786310;177;919279;-69
2022/01/12 01:11:55;;;;;;;153.63;60.70;;;;;;;;;;782563;177;917804;-70
2022/01/12 01:14:33;;;;;;;149.87;59.70;;;;;;;;;;779998;177;918595;-70
2022/01/12 01:26:57;;;;;;;139.67;62.87;;;;;;;;;;780137;176;918912;-69
2022/01/12 01:29:21;;;;;;;151.20;67.83;;;;;;;;;;787005;176;919143;-70
2022/01/12 01:31:47;;;;;;;154.53;63.43;;;;;;;;;;780546;176;919505;-69
2022/01/12 01:34:14;;;;;;;145.00;60.87;;;;;;;;;;779643;178;918097;-70
2022/01/12 01:36:39;;;;;;;162.30;68.97;;;;;;;;;;783614;177;917770;-70
2022/01/12 01:39:05;;;;;;;157.77;67.83;;;;;;;;;;782537;177;918223;-70
2022/01/12 01:41:31;;;;;;;145.50;61.40;;;;;;;;;;793402;176;628622;-69
2022/01/12 01:54:03;;;;;;;164.33;71.07;;;;;;;;;;784735;178;954946;-68
2022/01/12 01:56:29;;;;;;;147.17;65.73;;;;;;;;;;782456;177;914905;-68
2022/01/12 01:58:55;;;;;;;159.47;66.33;;;;;;;;;;779394;176;1021019;-69
2022/01/12 02:01:21;;;;;;;174.57;71.17;;;;;;;;;;779383;176;920315;-70
2022/01/12 02:03:47;;;;;;;147.77;69.33;;;;;;;;;;778540;177;920492;-68
2022/01/12 02:06:12;;;;;;;140.80;62.77;;;;;;;;;;786369;176;920076;-67
2022/01/12 02:08:38;;;;;;;150.00;66.17;;;;;;;;;;784131;177;919111;-68
2022/01/12 02:11:04;;;;;;;154.13;65.90;;;;;;;;;;782387;177;1020771;-68
2022/01/12 02:13:30;;;;;;;152.17;61.97;;;;;;;;;;770258;180;919660;-67
2022/01/12 02:15:57;;;;;;;139.97;60.40;;;;;;;;;;782568;176;914863;-68
2022/01/12 02:18:42;;;;;;;154.83;66.60;;;;;;;;;;781678;177;925415;-68
2022/01/12 02:36:18;;;;;;;163.90;61.30;;;;;;;;;;781663;176;979178;-68
2022/01/12 02:41:10;;;;;;;172.20;71.73;;;;;;;;;;787756;176;918269;-68
2022/01/12 02:50:34;;;;;;;166.83;63.47;;;;;;;;;;778918;177;918264;-70
2022/01/12 02:53:50;;;;;;;177.30;68.37;;;;;;;;;;777770;178;918513;-69
2022/01/12 02:56:18;;;;;;;181.33;72.37;;;;;;;;;;779651;178;919650;-69
2022/01/12 02:58:44;;;;;;;180.80;70.20;;;;;;;;;;782611;176;918297;-69
2022/01/12 03:01:41;;;;;;;171.93;67.57;;;;;;;;;;778263;176;1020353;-69
2022/01/12 03:03:46;;;;;;;181.37;67.63;;;;;;;;;;774892;177;919148;-69
2022/01/12 03:06:14;;;;;;;158.87;65.83;;;;;;;;;;777143;176;920092;-69
2022/01/12 03:08:37;;;;;;;167.98;66.57;;;;;;;;;;783859;176;890658;-70
2022/01/12 03:11:03;;;;;;;196.70;71.23;;;;;;;;;;784114;177;928948;-69
2022/01/12 03:13:29;;;;;;;151.90;64.00;;;;;;;;;;780482;176;919082;-70
2022/01/12 03:15:56;;;;;;;168.55;67.72;;;;;;;;;;777892;177;919343;-70
2022/01/12 03:18:21;;;;;;;161.83;64.73;;;;;;;;;;784381;177;919455;-69
2022/01/12 03:20:47;;;;;;;171.80;63.00;;;;;;;;;;778547;177;919035;-68
2022/01/12 03:23:14;;;;;;;110.10;45.57;;;;;;;;;;780389;179;918950;-70
2022/01/12 03:25:39;;;;;;;140.30;59.27;;;;;;;;;;787162;177;918454;-69
2022/01/12 03:28:07;;;;;;;141.20;58.10;;;;;;;;;;781600;177;919635;-70
2022/01/12 03:30:37;;;;;;;162.67;62.97;;;;;;;;;;780039;177;917197;-68
2022/01/12 03:35:48;;;;;;;148.63;70.60;;;;;;;;;;786231;176;918166;-69
2022/01/12 03:38:19;;;;;;;179.67;67.20;;;;;;;;;;780120;176;919039;-69
2022/01/12 03:40:20;;;;;;;178.37;72.23;;;;;;;;;;776631;177;1017803;-69
2022/01/12 03:42:46;;;;;;;203.63;90.03;;;;;;;;;;783194;178;915565;-69
2022/01/12 03:45:12;;;;;;;175.90;76.23;;;;;;;;;;776754;174;919332;-70
2022/01/12 03:47:38;;;;;;;196.55;84.45;;;;;;;;;;780660;176;919352;-70
2022/01/12 03:50:04;;;;;;;202.93;86.77;;;;;;;;;;777416;180;918595;-69
2022/01/12 03:52:30;;;;;;;210.67;94.30;;;;;;;;;;785779;176;919093;-69
2022/01/12 03:54:55;;;;;;;205.10;86.10;;;;;;;;;;787814;176;918867;-69
2022/01/12 03:57:21;;;;;;;185.17;73.50;;;;;;;;;;780862;176;922240;-69
2022/01/12 03:59:47;;;;;;;157.60;67.50;;;;;;;;;;787239;176;919864;-70
2022/01/12 04:02:13;;;;;;;169.23;71.90;;;;;;;;;;780355;176;919560;-71
2022/01/12 04:05:03;;;;;;;156.40;66.37;;;;;;;;;;780525;176;919199;-70
2022/01/12 04:09:36;;;;;;;188.67;79.40;;;;;;;;;;780300;178;919266;-69
2022/01/12 04:12:02;;;;;;;168.10;72.23;;;;;;;;;;780181;176;918677;-70
2022/01/12 04:14:28;;;;;;;163.55;71.18;;;;;;;;;;782678;177;919137;-68
2022/01/12 04:16:54;;;;;;;151.13;68.60;;;;;;;;;;783959;176;918653;-69
2022/01/12 04:19:20;;;;;;;155.13;63.10;;;;;;;;;;780610;176;919096;-71
2022/01/12 04:21:49;;;;;;;151.63;54.83;;;;;;;;;;780059;177;918753;-69
2022/01/12 04:24:13;;;;;;;147.37;57.43;;;;;;;;;;786763;177;632210;-70
2022/01/12 04:26:38;;;;;;;150.70;62.50;;;;;;;;;;782022;177;918659;-69
2022/01/12 04:29:04;;;;;;;140.37;55.25;;;;;;;;;;777674;177;919207;-69
2022/01/12 04:31:29;;;;;;;135.27;55.63;;;;;;;;;;788387;177;918610;-70
2022/01/12 04:33:55;;;;;;;123.13;54.33;;;;;;;;;;788156;176;918758;-70
2022/01/12 04:36:21;;;;;;;123.63;53.30;;;;;;;;;;775325;177;1021369;-70
2022/01/12 04:38:47;;;;;;;127.00;52.50;;;;;;;;;;779955;177;919493;-68
2022/01/12 04:41:13;;;;;;;134.77;58.60;;;;;;;;;;776816;180;919082;-69
2022/01/12 04:43:38;;;;;;;118.20;45.53;;;;;;;;;;774488;177;918486;-69
2022/01/12 04:48:52;;;;;;;115.90;50.30;;;;;;;;;;779916;176;918646;-70
2022/01/12 04:51:14;;;;;;;151.00;60.47;;;;;;;;;;769827;181;918362;-70
2022/01/12 04:53:40;;;;;;;150.63;60.43;;;;;;;;;;781375;176;1123810;-69
2022/01/12 04:56:06;;;;;;;84.30;39.87;;;;;;;;;;782008;177;934121;-70
2022/01/12 04:58:32;;;;;;;106.13;44.40;;;;;;;;;;788375;176;946284;-69
2022/01/12 05:01:05;;;;;;;72.10;38.67;;;;;;;;;;773407;176;919927;-69
2022/01/12 05:08:53;;;;;;;45.60;22.60;;;;;;;;;;786799;177;626017;-69
2022/01/12 05:13:39;;;;;;;41.27;19.40;;;;;;;;;;785694;177;919438;-70
2022/01/12 05:16:05;;;;;;;34.00;20.30;;;;;;;;;;789518;177;640482;-69
2022/01/12 05:18:31;;;;;;;38.03;17.40;;;;;;;;;;789467;177;629339;-69
2022/01/12 05:20:57;;;;;;;30.40;15.97;;;;;;;;;;780373;179;915164;-70
2022/01/12 05:23:22;;;;;;;29.57;12.30;;;;;;;;;;784902;176;1047996;-70
2022/01/12 05:25:48;;;;;;;27.03;12.50;;;;;;;;;;779564;176;1017920;-69
2022/01/12 05:28:14;;;;;;;32.92;14.35;;;;;;;;;;787664;177;916162;-70
2022/01/12 05:30:40;;;;;;;31.30;17.37;;;;;;;;;;783632;177;630623;-69
2022/01/12 05:33:06;;;;;;;30.13;15.20;;;;;;;;;;780923;176;918700;-69
2022/01/12 05:35:33;;;;;;;38.20;17.47;;;;;;;;;;789128;176;622927;-68
2022/01/12 05:37:58;;;;;;;61.67;24.63;;;;;;;;;;783365;176;919425;-69
2022/01/12 05:40:24;;;;;;;37.77;19.20;;;;;;;;;;782270;177;919083;-69
2022/01/12 05:42:51;;;;;;;34.00;14.20;;;;;;;;;;781760;177;922329;-70
2022/01/12 05:45:18;;;;;;;38.80;14.52;;;;;;;;;;773385;180;918577;-70
2022/01/12 05:50:23;;;;;;;36.83;16.20;;;;;;;;;;774511;176;918920;-70
2022/01/12 05:52:49;;;;;;;42.27;17.37;;;;;;;;;;788040;177;636890;-69
2022/01/12 05:55:15;;;;;;;27.10;14.03;;;;;;;;;;786390;179;625743;-70
2022/01/12 05:57:41;;;;;;;33.57;16.80;;;;;;;;;;782880;177;637972;-70
2022/01/12 06:00:08;;;;;;;39.13;16.87;;;;;;;;;;783308;177;641835;-69
2022/01/12 06:02:34;;;;;;;31.47;16.43;;;;;;;;;;787071;177;919314;-67
2022/01/12 06:05:00;;;;;;;41.20;19.60;;;;;;;;;;777223;176;882840;-69
2022/01/12 06:07:25;;;;;;;42.33;19.60;;;;;;;;;;768814;180;919608;-69
2022/01/12 06:09:51;;;;;;;44.27;20.10;;;;;;;;;;765919;180;919583;-69
2022/01/12 06:12:17;;;;;;;40.90;16.70;;;;;;;;;;768437;183;617669;-69
2022/01/12 06:14:43;;;;;;;30.90;15.20;;;;;;;;;;762659;180;622792;-70
2022/01/12 06:17:09;;;;;;;33.63;17.00;;;;;;;;;;765139;180;919118;-69
2022/01/12 06:19:35;;;;;;;25.40;16.00;;;;;;;;;;785890;176;846336;-69
2022/01/12 06:22:00;;;;;;;37.85;17.52;;;;;;;;;;779319;177;918662;-70
2022/01/12 06:24:28;;;;;;;34.13;16.97;;;;;;;;;;780582;177;918818;-69
2022/01/12 06:26:52;;;;;;;38.97;20.20;;;;;;;;;;785522;177;918822;-70
2022/01/12 06:29:38;;;;;;;30.27;17.87;;;;;;;;;;779205;177;918951;-69
2022/01/12 06:31:54;;;;;;;40.27;21.03;;;;;;;;;;779185;177;919214;-70
2022/01/12 06:34:20;;;;;;;27.60;14.40;;;;;;;;;;786938;177;922867;-70
2022/01/12 06:36:45;;;;;;;29.37;16.37;;;;;;;;;;769887;181;921213;-69
2022/01/12 06:39:11;;;;;;;38.33;20.00;;;;;;;;;;760112;183;918610;-70
2022/01/12 06:41:37;;;;;;;45.03;18.67;;;;;;;;;;781394;176;920721;-70
2022/01/12 06:44:03;;;;;;;36.13;19.10;;;;;;;;;;786292;177;914774;-68
2022/01/12 06:46:31;;;;;;;23.90;12.57;;;;;;;;;;779400;176;1015073;-68
2022/01/12 06:48:55;;;;;;;29.27;13.90;;;;;;;;;;782104;176;918576;-68
2022/01/12 06:51:21;;;;;;;33.07;12.60;;;;;;;;;;771699;180;914799;-69
2022/01/12 06:53:47;;;;;;;34.30;16.07;;;;;;;;;;774628;180;921017;-68
2022/01/12 06:56:15;;;;;;;31.37;14.50;;;;;;;;;;775870;177;1014840;-68
2022/01/12 06:58:38;;;;;;;27.90;14.35;;;;;;;;;;779904;177;920072;-67
2022/01/12 07:01:04;;;;;;;38.17;19.20;;;;;;;;;;785622;177;917566;-68
2022/01/12 07:03:30;;;;;;;34.40;16.93;;;;;;;;;;791717;176;919616;-69
2022/01/12 07:05:56;;;;;;;40.03;18.70;;;;;;;;;;779836;177;917125;-68
2022/01/12 07:08:22;;;;;;;32.17;15.50;;;;;;;;;;785397;176;935145;-68
2022/01/12 07:10:48;;;;;;;37.90;18.23;;;;;;;;;;778906;177;919228;-67
2022/01/12 07:13:14;;;;;;;27.10;13.57;;;;;;;;;;766323;181;918803;-67
2022/01/12 07:15:40;;;;;;;32.47;15.70;;;;;;;;;;772395;179;917904;-68
2022/01/12 07:18:05;;;;;;;31.90;16.03;;;;;;;;;;793529;176;918176;-67
2022/01/12 07:20:31;;;;;;;34.17;15.50;;;;;;;;;;786824;176;918097;-68
2022/01/12 07:22:57;;;;;;;29.08;15.07;;;;;;;;;;779689;176;919412;-69
2022/01/12 07:25:23;;;;;;;42.57;17.70;;;;;;;;;;775419;181;917591;-67
2022/01/12 07:27:48;;;;;;;36.77;18.30;;;;;;;;;;786803;176;917889;-67
2022/01/12 07:30:14;;;;;;;40.35;17.67;;;;;;;;;;782207;177;919107;-67
2022/01/12 07:32:40;;;;;;;39.63;19.33;;;;;;;;;;787976;177;917908;-70
2022/01/12 07:35:06;;;;;;;43.53;20.27;;;;;;;;;;779429;177;918268;-71
2022/01/12 07:37:32;;;;;;;28.87;15.43;;;;;;;;;;778403;177;1018859;-70
2022/01/12 07:39:58;;;;;;;37.83;19.58;;;;;;;;;;781778;177;918748;-68
2022/01/12 07:42:24;;;;;;;37.80;18.93;;;;;;;;;;787663;176;1020397;-70
2022/01/12 07:44:57;;;;;;;84.33;34.57;;;;;;;;;;789724;175;919059;-67
2022/01/12 07:47:16;;;;;;;36.97;16.30;;;;;;;;;;779210;177;919724;-67
2022/01/12 07:49:42;;;;;;;34.13;17.13;;;;;;;;;;766974;180;918797;-67
2022/01/12 07:52:08;;;;;;;30.73;14.87;;;;;;;;;;779000;176;919518;-66
2022/01/12 07:54:33;;;;;;;41.03;20.07;;;;;;;;;;778549;176;954166;-68
2022/01/12 07:56:59;;;;;;;48.30;21.70;;;;;;;;;;785492;177;918445;-67
2022/01/12 07:59:25;;;;;;;51.47;23.30;;;;;;;;;;782627;177;918214;-67
2022/01/12 08:01:51;;;;;;;41.70;21.40;;;;;;;;;;778110;177;920954;-67
2022/01/12 08:04:17;;;;;;;44.00;21.00;;;;;;;;;;785066;176;916389;-68
2022/01/12 08:06:43;;;;;;;57.50;25.57;;;;;;;;;;776318;177;918796;-68
2022/01/12 08:09:08;;;;;;;134.33;58.67;;;;;;;;;;779502;177;919780;-68
2022/01/12 08:11:34;;;;;;;32.63;19.58;;;;;;;;;;779799;177;918798;-67
2022/01/12 08:14:00;;;;;;;38.80;19.23;;;;;;;;;;796592;176;920543;-68
2022/01/12 08:16:26;;;;;;;36.73;21.77;;;;;;;;;;785943;176;626327;-67
2022/01/12 08:18:52;;;;;;;32.93;15.70;;;;;;;;;;787744;177;1020932;-67
2022/01/12 08:21:18;;;;;;;34.00;17.30;;;;;;;;;;783099;177;915366;-67
2022/01/12 08:23:44;;;;;;;40.07;21.00;;;;;;;;;;779132;177;918090;-67
2022/01/12 08:26:09;;;;;;;40.10;21.43;;;;;;;;;;778093;177;917369;-67
2022/01/12 08:28:35;;;;;;;26.20;12.03;;;;;;;;;;787228;177;916047;-67
2022/01/12 08:31:01;;;;;;;40.27;17.77;;;;;;;;;;785611;177;640068;-67
2022/01/12 08:33:28;;;;;;;35.77;18.90;;;;;;;;;;785387;177;906691;-67
2022/01/12 08:35:53;;;;;;;35.17;18.62;;;;;;;;;;779804;178;920309;-66
2022/01/12 08:38:19;;;;;;;30.63;17.60;;;;;;;;;;777522;180;919456;-67
2022/01/12 08:40:44;;;;;;;33.07;16.20;;;;;;;;;;781385;177;918099;-67
2022/01/12 08:43:12;;;;;;;32.90;17.37;;;;;;;;;;779033;177;918383;-67
2022/01/12 08:45:36;;;;;;;31.80;15.53;;;;;;;;;;794996;177;918406;-67
2022/01/12 08:48:02;;;;;;;40.15;21.08;;;;;;;;;;780975;177;918758;-67
2022/01/12 08:50:28;;;;;;;34.73;16.97;;;;;;;;;;778769;177;911572;-67
2022/01/12 08:52:54;;;;;;;38.70;19.43;;;;;;;;;;794776;176;911728;-67
2022/01/12 08:55:20;;;;;;;44.70;23.02;;;;;;;;;;779244;176;916403;-66
2022/01/12 08:57:45;;;;;;;39.73;17.90;;;;;;;;;;778412;176;916181;-68
2022/01/12 09:00:12;;;;;;;35.00;15.03;;;;;;;;;;787959;176;906369;-66
2022/01/12 09:02:38;;;;;;;33.70;13.50;;;;;;;;;;779370;176;919126;-68
2022/01/12 09:05:04;;;;;;;34.23;15.43;;;;;;;;;;794356;175;918649;-67
2022/01/12 09:07:30;;;;;;;23.73;10.23;;;;;;;;;;784968;176;1020770;-67
2022/01/12 09:09:56;;;;;;;23.50;11.40;;;;;;;;;;789234;177;917845;-68
2022/01/12 09:12:22;;;;;;;28.90;15.80;;;;;;;;;;780036;177;919590;-68
2022/01/12 09:14:48;;;;;;;50.20;22.47;;;;;;;;;;779869;176;918688;-67
2022/01/12 09:17:16;;;;;;;40.90;15.40;;;;;;;;;;769140;181;920177;-67
2022/01/12 09:19:40;;;;;;;35.95;18.37;;;;;;;;;;781041;176;918053;-66
2022/01/12 09:22:06;;;;;;;38.73;18.40;;;;;;;;;;778422;177;918780;-67
2022/01/12 09:24:32;;;;;;;42.38;20.90;;;;;;;;;;786072;177;920402;-66
2022/01/12 09:26:58;;;;;;;48.50;24.47;;;;;;;;;;782473;179;919431;-67
2022/01/12 09:29:24;;;;;;;36.67;19.00;;;;;;;;;;785181;175;918643;-66
2022/01/12 09:31:50;;;;;;;33.40;20.47;;;;;;;;;;776256;177;918975;-68
2022/01/12 09:34:16;;;;;;;31.47;16.17;;;;;;;;;;771978;181;1021423;-67
2022/01/12 09:36:42;;;;;;;16.77;9.00;;;;;;;;;;779182;177;913529;-67
2022/01/12 09:39:08;;;;;;;25.73;16.37;;;;;;;;;;777755;178;921402;-66
2022/01/12 09:41:34;;;;;;;27.97;15.50;;;;;;;;;;787706;176;912070;-67
2022/01/12 09:44:00;;;;;;;37.03;14.35;;;;;;;;;;783496;175;912157;-66
2022/01/12 09:46:26;;;;;;;24.93;13.63;;;;;;;;;;782220;179;913044;-66
2022/01/12 09:48:52;;;;;;;31.87;17.00;;;;;;;;;;786771;176;911828;-66
2022/01/12 09:51:18;;;;;;;26.30;14.17;;;;;;;;;;772996;177;913114;-67
2022/01/12 09:53:44;;;;;;;25.10;11.97;;;;;;;;;;783177;176;912054;-65
2022/01/12 09:56:10;;;;;;;27.60;15.07;;;;;;;;;;783047;176;911866;-67
2022/01/12 09:58:36;;;;;;;24.57;12.77;;;;;;;;;;784646;177;920126;-67
2022/01/12 10:01:02;;;;;;;29.93;15.70;;;;;;;;;;774285;180;921011;-66
2022/01/12 10:03:28;;;;;;;25.30;13.50;;;;;;;;;;770265;179;911413;-66
2022/01/12 10:05:53;;;;;;;19.33;10.87;;;;;;;;;;771949;181;912894;-66
2022/01/12 10:08:19;;;;;;;26.63;15.27;;;;;;;;;;780470;176;921097;-67
2022/01/12 10:11:03;;;;;;;37.60;20.27;;;;;;;;;;780420;176;919261;-66
2022/01/12 10:13:29;;;;;;;32.47;18.13;;;;;;;;;;781950;176;615674;-67
2022/01/12 10:15:55;;;;;;;30.75;17.25;;;;;;;;;;784484;177;918616;-65
2022/01/12 10:18:22;;;;;;;27.30;14.27;;;;;;;;;;777254;179;919232;-66
2022/01/12 10:20:47;;;;;;;24.73;13.60;;;;;;;;;;778983;176;903512;-67
2022/01/12 10:23:15;;;;;;;27.43;15.90;;;;;;;;;;779038;177;916151;-64
2022/01/12 10:25:41;;;;;;;28.73;15.90;;;;;;;;;;785390;177;921837;-66
2022/01/12 10:28:10;;;;;;;19.90;12.10;;;;;;;;;;781974;176;912745;-65
2022/01/12 10:30:37;;;;;;;29.43;17.47;;;;;;;;;;780682;177;916214;-66
2022/01/12 10:33:02;;;;;;;28.17;15.17;;;;;;;;;;785612;177;921689;-65
2022/01/12 10:35:28;;;;;;;35.05;18.12;;;;;;;;;;786164;176;1022299;-65
2022/01/12 10:37:54;;;;;;;36.67;17.53;;;;;;;;;;777119;176;919414;-66
2022/01/12 10:40:20;;;;;;;33.73;17.03;;;;;;;;;;778576;177;919903;-66
2022/01/12 10:42:46;;;;;;;30.17;15.53;;;;;;;;;;784133;180;637257;-66
2022/01/12 10:45:11;;;;;;;24.17;13.03;;;;;;;;;;793296;175;629525;-65
2022/01/12 10:47:37;;;;;;;27.80;16.27;;;;;;;;;;784860;177;666177;-66
2022/01/12 10:50:03;;;;;;;27.17;16.97;;;;;;;;;;790022;177;627992;-66
2022/01/12 10:52:31;;;;;;;30.30;16.90;;;;;;;;;;788375;177;912693;-66
2022/01/12 10:54:57;;;;;;;29.23;15.77;;;;;;;;;;783492;177;881892;-66
2022/01/12 10:57:24;;;;;;;23.57;13.10;;;;;;;;;;780833;176;912209;-63
2022/01/12 10:59:56;;;;;;;33.83;16.40;;;;;;;;;;782869;176;911469;-65
2022/01/12 11:02:22;;;;;;;26.93;13.07;;;;;;;;;;789752;176;915476;-65
2022/01/12 11:04:47;;;;;;;26.70;15.75;;;;;;;;;;781229;176;922270;-65
2022/01/12 11:07:13;;;;;;;28.23;13.87;;;;;;;;;;787511;177;917238;-66
2022/01/12 11:09:39;;;;;;;27.10;16.20;;;;;;;;;;779460;177;914970;-65
2022/01/12 11:12:05;;;;;;;31.87;15.07;;;;;;;;;;777937;177;912981;-65
2022/01/12 11:14:31;;;;;;;37.33;15.73;;;;;;;;;;780024;176;915898;-65
2022/01/12 11:16:57;;;;;;;28.10;12.77;;;;;;;;;;781493;177;914367;-65
2022/01/12 11:19:23;;;;;;;26.12;13.30;;;;;;;;;;786196;176;920906;-64
2022/01/12 11:21:50;;;;;;;76.97;29.73;;;;;;;;;;779272;176;916179;-63
2022/01/12 11:24:17;;;;;;;61.53;25.88;;;;;;;;;;763278;183;913706;-63
2022/01/12 11:26:47;;;;;;;33.10;16.30;;;;;;;;;;783688;176;924782;-64
2022/01/12 11:29:13;;;;;;;29.13;14.43;;;;;;;;;;786315;177;914465;-63
2022/01/12 11:31:40;;;;;;;34.70;14.43;;;;;;;;;;777682;177;916169;-63
2022/01/12 11:34:05;;;;;;;29.87;15.60;;;;;;;;;;786070;176;918746;-62
2022/01/12 11:36:34;;;;;;;26.73;14.80;;;;;;;;;;779850;177;916348;-62
2022/01/12 11:39:01;;;;;;;29.73;16.47;;;;;;;;;;778885;177;914834;-63
2022/01/12 11:41:28;;;;;;;28.80;13.07;;;;;;;;;;777138;179;918797;-63
2022/01/12 11:43:53;;;;;;;22.97;11.67;;;;;;;;;;764305;180;916748;-64
2022/01/12 11:46:21;;;;;;;29.83;14.50;;;;;;;;;;774377;177;915475;-64
2022/01/12 11:48:48;;;;;;;21.83;13.17;;;;;;;;;;780875;177;920664;-62
2022/01/12 11:51:14;;;;;;;39.87;18.97;;;;;;;;;;774746;179;913562;-64
2022/01/12 11:53:48;;;;;;;27.27;13.20;;;;;;;;;;783815;176;919620;-64
2022/01/12 11:56:14;;;;;;;28.05;14.13;;;;;;;;;;777585;177;919097;-65
2022/01/12 11:58:45;;;;;;;28.00;13.00;;;;;;;;;;783711;177;912639;-65
2022/01/12 12:01:13;;;;;;;83.40;31.00;;;;;;;;;;785136;177;913749;-64
2022/01/12 12:03:39;;;;;;;78.43;31.27;;;;;;;;;;781780;176;916146;-64
2022/01/12 12:06:05;;;;;;;68.40;29.90;;;;;;;;;;780061;177;917110;-65
2022/01/12 12:08:31;;;;;;;29.80;15.80;;;;;;;;;;788425;175;930023;-65
2022/01/12 12:10:57;;;;;;;23.50;11.97;;;;;;;;;;777543;176;915792;-66
2022/01/12 12:13:22;;;;;;;50.40;20.50;;;;;;;;;;789902;173;917865;-64
2022/01/12 12:15:50;;;;;;;35.15;20.10;;;;;;;;;;784442;176;917744;-64
2022/01/12 12:18:14;;;;;;;28.33;15.47;;;;;;;;;;775681;176;916659;-64
2022/01/12 12:20:40;;;;;;;35.23;19.10;;;;;;;;;;784252;176;1021680;-64
2022/01/12 12:23:06;;;;;;;60.97;26.43;;;;;;;;;;780773;177;914010;-65
2022/01/12 12:25:34;;;;;;;46.80;20.50;;;;;;;;;;784831;176;914132;-64
2022/01/12 12:27:58;;;;;;;52.97;25.57;;;;;;;;;;777219;176;919904;-65
2022/01/12 12:30:24;;;;;;;35.00;16.70;;;;;;;;;;785668;176;912091;-66
2022/01/12 12:32:53;;;;;;;59.43;29.37;;;;;;;;;;770216;180;912543;-66
2022/01/12 12:35:17;;;;;;;28.73;16.50;;;;;;;;;;784614;176;916446;-65
2022/01/12 12:37:44;;;;;;;39.20;18.30;;;;;;;;;;770673;178;1018268;-64
2022/01/12 12:40:12;;;;;;;38.47;18.30;;;;;;;;;;779490;177;916181;-65
2022/01/12 12:42:38;;;;;;;39.53;19.23;;;;;;;;;;779681;176;915866;-64
2022/01/12 12:45:04;;;;;;;86.22;35.88;;;;;;;;;;782032;176;914437;-64
2022/01/12 12:47:31;;;;;;;34.20;21.07;;;;;;;;;;780738;176;916609;-63
2022/01/12 12:49:56;;;;;;;37.67;18.80;;;;;;;;;;787743;177;633093;-63
2022/01/12 12:52:22;;;;;;;43.90;17.63;;;;;;;;;;772094;179;637227;-62
2022/01/12 12:54:48;;;;;;;41.03;18.33;;;;;;;;;;755690;180;914893;-62
2022/01/12 12:57:20;;;;;;;25.93;13.60;;;;;;;;;;773448;180;1120158;-61
2022/01/12 12:59:40;;;;;;;51.90;22.70;;;;;;;;;;769442;178;915994;-61
2022/01/12 13:02:09;;;;;;;35.80;18.83;;;;;;;;;;767596;179;915325;-61
2022/01/12 13:04:35;;;;;;;39.07;18.03;;;;;;;;;;766668;179;916198;-61
2022/01/12 13:07:01;;;;;;;52.50;23.53;;;;;;;;;;795355;176;916035;-60
2022/01/12 13:09:27;;;;;;;117.30;32.47;;;;;;;;;;778418;176;1013550;-61
2022/01/12 13:11:53;;;;;;;79.25;30.40;;;;;;;;;;781496;176;1023106;-61
2022/01/12 13:14:19;;;;;;;65.90;22.17;;;;;;;;;;787296;177;915407;-61
2022/01/12 13:16:48;;;;;;;50.40;24.00;;;;;;;;;;783673;177;614621;-61
2022/01/12 13:19:22;;;;;;;176.33;54.83;;;;;;;;;;776697;176;642513;-61
2022/01/12 13:21:48;;;;;;;43.90;21.55;;;;;;;;;;789454;176;1018567;-60
2022/01/12 13:24:14;;;;;;;115.20;33.90;;;;;;;;;;788222;176;924360;-61
2022/01/12 13:26:39;;;;;;;145.23;54.27;;;;;;;;;;771301;176;920907;-61
2022/01/12 13:29:05;;;;;;;36.25;21.52;;;;;;;;;;791162;176;888832;-61
2022/01/12 13:31:31;;;;;;;39.35;20.55;;;;;;;;;;787906;176;997791;-62
2022/01/12 13:33:57;;;;;;;46.77;28.67;;;;;;;;;;780736;177;914209;-61
2022/01/12 13:36:25;;;;;;;34.37;18.17;;;;;;;;;;778786;176;919761;-62
2022/01/12 13:38:54;;;;;;;43.40;22.43;;;;;;;;;;778230;177;1020790;-62
2022/01/12 13:41:22;;;;;;;92.60;41.07;;;;;;;;;;785581;177;913442;-62
2022/01/12 13:43:48;;;;;;;31.80;18.10;;;;;;;;;;781952;177;913732;-62
2022/01/12 13:46:14;;;;;;;83.60;44.83;;;;;;;;;;778703;176;921715;-62
2022/01/12 13:48:40;;;;;;;30.23;16.50;;;;;;;;;;790970;176;909325;-62
2022/01/12 13:51:04;;;;;;;37.00;20.00;;;;;;;;;;783279;176;917120;-62
2022/01/12 13:53:39;;;;;;;35.00;18.30;;;;;;;;;;790873;173;915975;-63
2022/01/12 13:56:05;;;;;;;29.43;17.20;;;;;;;;;;778624;177;1018517;-64
2022/01/12 13:58:30;;;;;;;124.67;47.93;;;;;;;;;;786333;177;913831;-63
2022/01/12 14:01:01;;;;;;;49.83;24.67;;;;;;;;;;781738;177;918850;-64
2022/01/12 14:03:27;;;;;;;40.43;22.43;;;;;;;;;;780942;176;911097;-65
2022/01/12 14:05:58;;;;;;;24.90;14.77;;;;;;;;;;781581;176;998533;-65
2022/01/12 14:08:19;;;;;;;29.07;14.03;;;;;;;;;;765936;181;1022099;-66
2022/01/12 14:10:45;;;;;;;29.50;15.77;;;;;;;;;;752923;184;918002;-66
2022/01/12 14:13:11;;;;;;;23.13;11.80;;;;;;;;;;773276;180;916892;-66
2022/01/12 14:15:36;;;;;;;26.40;15.70;;;;;;;;;;747786;185;919380;-67
2022/01/12 14:18:05;;;;;;;36.33;18.95;;;;;;;;;;760726;179;927226;-67
2022/01/12 14:20:30;;;;;;;27.50;16.37;;;;;;;;;;776032;179;1113158;-67
2022/01/12 14:22:55;;;;;;;34.70;18.27;;;;;;;;;;769582;178;919517;-66
2022/01/12 14:25:21;;;;;;;38.97;20.13;;;;;;;;;;785577;177;919221;-67
2022/01/12 14:27:46;;;;;;;34.03;20.33;;;;;;;;;;777436;177;917674;-67
2022/01/12 14:30:12;;;;;;;42.42;24.75;;;;;;;;;;782518;176;919322;-68
2022/01/12 14:32:38;;;;;;;40.80;22.80;;;;;;;;;;789434;176;916538;-68
2022/01/12 14:35:04;;;;;;;37.80;22.70;;;;;;;;;;780257;176;918954;-68
2022/01/12 14:37:30;;;;;;;58.47;29.80;;;;;;;;;;772254;180;918260;-68
2022/01/12 14:39:56;;;;;;;60.93;31.50;;;;;;;;;;785769;176;919916;-68
2022/01/12 14:42:22;;;;;;;84.33;43.93;;;;;;;;;;783447;177;920629;-68
2022/01/12 14:44:48;;;;;;;77.83;38.90;;;;;;;;;;780637;176;919614;-70
2022/01/12 14:47:14;;;;;;;90.37;40.37;;;;;;;;;;786408;176;919498;-68
2022/01/12 14:49:40;;;;;;;56.37;29.23;;;;;;;;;;781134;176;916107;-69
2022/01/12 14:52:06;;;;;;;74.03;33.47;;;;;;;;;;783583;176;915571;-68
2022/01/12 14:54:32;;;;;;;88.83;45.33;;;;;;;;;;785431;176;618013;-68
2022/01/12 14:56:57;;;;;;;56.33;29.77;;;;;;;;;;782255;177;920833;-68
2022/01/12 14:59:24;;;;;;;50.27;27.10;;;;;;;;;;778149;177;917306;-68
2022/01/12 15:01:49;;;;;;;61.03;30.23;;;;;;;;;;779623;177;918017;-68
2022/01/12 15:04:15;;;;;;;58.30;31.15;;;;;;;;;;773573;179;917692;-68